createdAt,value
2018-09-20T00:00:26.260Z,0.00
2018-09-20T00:01:26.225Z,0.00
2018-09-20T00:02:26.217Z,0.00
2018-09-20T00:03:26.202Z,0.00
2018-09-20T00:04:26.181Z,0.00
2018-09-20T00:05:26.160Z,0.00
2018-09-20T00:06:26.131Z,0.00
2018-09-20T00:07:26.111Z,0.00
2018-09-20T00:08:26.101Z,0.00
2018-09-20T00:09:26.082Z,0.00
2018-09-20T00:10:26.066Z,0.00
2018-09-20T00:11:26.050Z,0.00
2018-09-20T00:12:26.011Z,0.00
2018-09-20T00:13:25.992Z,0.00
2018-09-20T00:14:25.981Z,0.00
2018-09-20T00:15:25.963Z,0.00
2018-09-20T00:16:25.945Z,0.00
2018-09-20T00:17:25.925Z,0.00
2018-09-20T00:18:25.899Z,0.00
2018-09-20T00:19:25.881Z,0.00
2018-09-20T00:20:25.853Z,0.00
2018-09-20T00:21:25.847Z,0.00
2018-09-20T00:22:25.830Z,0.00
2018-09-20T00:23:25.813Z,0.00
2018-09-20T00:24:25.789Z,0.00
2018-09-20T00:25:25.777Z,0.00
2018-09-20T00:26:25.740Z,0.00
2018-09-20T00:27:25.734Z,0.00
2018-09-20T00:28:25.700Z,0.00
2018-09-20T00:29:25.685Z,0.00
2018-09-20T00:30:25.676Z,0.00
2018-09-20T00:31:25.662Z,0.00
2018-09-20T00:32:25.623Z,0.00
2018-09-20T00:33:25.618Z,0.00
2018-09-20T00:34:25.593Z,0.00
2018-09-20T00:35:25.582Z,0.00
2018-09-20T00:36:25.542Z,0.00
2018-09-20T00:37:25.527Z,0.00
2018-09-20T00:38:25.861Z,0.00
2018-09-20T00:39:25.499Z,0.00
2018-09-20T00:40:25.469Z,0.00
2018-09-20T00:41:25.491Z,0.00
2018-09-20T00:42:25.442Z,0.00
2018-09-20T00:43:25.417Z,0.00
2018-09-20T00:44:25.387Z,0.00
2018-09-20T00:45:25.365Z,0.00
2018-09-20T00:46:25.363Z,0.00
2018-09-20T00:47:25.329Z,0.00
2018-09-20T00:48:25.311Z,0.00
2018-09-20T00:49:25.300Z,0.00
2018-09-20T00:50:25.288Z,0.00
2018-09-20T00:51:25.255Z,0.00
2018-09-20T00:52:25.245Z,0.00
2018-09-20T00:53:25.235Z,0.00
2018-09-20T00:54:25.207Z,0.00
2018-09-20T00:55:25.184Z,0.00
2018-09-20T00:56:25.170Z,0.00
2018-09-20T00:57:25.141Z,0.00
2018-09-20T00:58:25.130Z,0.00
2018-09-20T00:59:25.095Z,0.00
2018-09-20T01:00:25.094Z,0.00
2018-09-20T01:01:25.068Z,0.00
2018-09-20T01:02:25.044Z,0.00
2018-09-20T01:03:25.032Z,0.00
2018-09-20T01:04:24.992Z,0.00
2018-09-20T01:05:24.987Z,0.00
2018-09-20T01:06:24.957Z,0.00
2018-09-20T01:07:24.951Z,0.00
2018-09-20T01:08:24.917Z,0.00
2018-09-20T01:09:24.901Z,0.00
2018-09-20T01:10:24.879Z,0.00
2018-09-20T01:11:24.870Z,0.00
2018-09-20T01:12:24.850Z,0.00
2018-09-20T01:13:24.830Z,0.00
2018-09-20T01:14:24.803Z,0.00
2018-09-20T01:15:24.791Z,0.00
2018-09-20T01:16:24.768Z,0.00
2018-09-20T01:17:24.751Z,0.00
2018-09-20T01:18:24.729Z,0.00
2018-09-20T01:19:24.714Z,0.00
2018-09-20T01:20:24.683Z,0.00
2018-09-20T01:21:24.665Z,0.00
2018-09-20T01:22:24.644Z,0.00
2018-09-20T01:23:24.624Z,0.00
2018-09-20T01:24:24.609Z,0.00
2018-09-20T01:25:24.601Z,0.00
2018-09-20T01:26:24.566Z,0.00
2018-09-20T01:27:24.558Z,0.00
2018-09-20T01:28:24.526Z,0.00
2018-09-20T01:29:24.522Z,0.00
2018-09-20T01:30:24.495Z,0.00
2018-09-20T01:31:24.472Z,0.00
2018-09-20T01:32:24.457Z,0.00
2018-09-20T01:33:24.435Z,0.00
2018-09-20T01:34:24.421Z,0.00
2018-09-20T01:35:24.398Z,0.00
2018-09-20T01:36:24.368Z,0.00
2018-09-20T01:37:24.361Z,0.00
2018-09-20T01:38:24.330Z,0.00
2018-09-20T01:39:24.305Z,0.00
2018-09-20T01:40:24.291Z,0.00
2018-09-20T01:41:24.285Z,0.00
2018-09-20T01:42:24.258Z,0.00
2018-09-20T01:43:24.234Z,0.00
2018-09-20T01:44:24.218Z,0.00
2018-09-20T01:45:24.194Z,0.00
2018-09-20T01:46:24.165Z,0.00
2018-09-20T01:47:24.164Z,0.00
2018-09-20T01:48:24.147Z,0.00
2018-09-20T01:49:24.112Z,0.00
2018-09-20T01:50:24.094Z,0.00
2018-09-20T01:51:24.085Z,0.00
2018-09-20T01:52:24.049Z,0.00
2018-09-20T01:53:24.048Z,0.00
2018-09-20T01:54:24.026Z,0.00
2018-09-20T01:55:24.015Z,0.00
2018-09-20T01:56:23.988Z,0.00
2018-09-20T01:57:23.972Z,0.00
2018-09-20T01:58:23.940Z,0.00
2018-09-20T01:59:23.921Z,0.00
2018-09-20T02:00:23.911Z,0.00
2018-09-20T02:01:23.889Z,0.00
2018-09-20T02:02:23.875Z,0.00
2018-09-20T02:03:23.934Z,0.00
2018-09-20T02:04:23.825Z,0.00
2018-09-20T02:05:23.805Z,0.00
2018-09-20T02:06:23.776Z,0.00
2018-09-20T02:07:23.769Z,0.00
2018-09-20T02:08:23.731Z,0.00
2018-09-20T02:09:23.731Z,0.00
2018-09-20T02:10:23.716Z,0.00
2018-09-20T02:11:23.690Z,0.00
2018-09-20T02:12:23.661Z,0.00
2018-09-20T02:13:23.655Z,0.00
2018-09-20T02:14:23.633Z,0.00
2018-09-20T02:15:23.616Z,0.00
2018-09-20T02:16:23.595Z,0.00
2018-09-20T02:17:23.562Z,0.00
2018-09-20T02:18:23.553Z,0.00
2018-09-20T02:19:23.535Z,0.00
2018-09-20T02:20:23.509Z,0.00
2018-09-20T02:21:23.493Z,0.00
2018-09-20T02:22:23.463Z,0.00
2018-09-20T02:23:23.453Z,0.00
2018-09-20T02:24:23.958Z,0.00
2018-09-20T02:25:23.409Z,0.00
2018-09-20T02:26:23.389Z,0.00
2018-09-20T02:27:23.371Z,0.00
2018-09-20T02:28:23.357Z,0.00
2018-09-20T02:29:23.321Z,0.00
2018-09-20T02:30:23.308Z,0.00
2018-09-20T02:31:23.300Z,0.00
2018-09-20T02:32:23.268Z,0.00
2018-09-20T02:33:23.246Z,0.00
2018-09-20T02:34:23.239Z,0.00
2018-09-20T02:35:23.226Z,0.00
2018-09-20T02:36:23.195Z,0.00
2018-09-20T02:37:23.183Z,0.00
2018-09-20T02:38:23.160Z,0.00
2018-09-20T02:39:23.134Z,0.00
2018-09-20T02:40:23.135Z,0.00
2018-09-20T02:41:23.110Z,0.00
2018-09-20T02:42:23.071Z,0.00
2018-09-20T02:43:23.065Z,0.00
2018-09-20T02:44:23.044Z,0.00
2018-09-20T02:45:23.031Z,0.00
2018-09-20T02:46:23.001Z,0.00
2018-09-20T02:47:22.974Z,0.00
2018-09-20T02:48:22.960Z,0.00
2018-09-20T02:49:22.940Z,0.00
2018-09-20T02:50:22.930Z,0.00
2018-09-20T02:51:22.901Z,0.00
2018-09-20T02:52:22.877Z,0.00
2018-09-20T02:53:22.867Z,0.00
2018-09-20T02:54:22.854Z,0.00
2018-09-20T02:55:22.839Z,0.00
2018-09-20T02:56:22.810Z,0.00
2018-09-20T02:57:22.778Z,0.00
2018-09-20T02:58:22.767Z,0.00
2018-09-20T02:59:22.829Z,0.00
2018-09-20T03:00:22.723Z,0.00
2018-09-20T03:01:22.703Z,0.00
2018-09-20T03:02:22.692Z,0.00
2018-09-20T03:03:22.682Z,0.00
2018-09-20T03:04:22.644Z,0.00
2018-09-20T03:05:22.627Z,0.00
2018-09-20T03:06:22.597Z,0.00
2018-09-20T03:07:22.597Z,0.00
2018-09-20T03:08:22.557Z,0.00
2018-09-20T03:09:22.546Z,0.00
2018-09-20T03:10:22.516Z,0.00
2018-09-20T03:11:22.511Z,0.00
2018-09-20T03:12:22.473Z,0.00
2018-09-20T03:13:22.453Z,0.00
2018-09-20T03:14:22.432Z,0.00
2018-09-20T03:15:22.421Z,0.00
2018-09-20T03:16:22.389Z,0.00
2018-09-20T03:17:22.386Z,0.00
2018-09-20T03:18:22.364Z,0.00
2018-09-20T03:19:22.344Z,0.00
2018-09-20T03:20:22.305Z,0.00
2018-09-20T03:21:22.297Z,0.00
2018-09-20T03:22:22.257Z,0.00
2018-09-20T03:23:22.249Z,0.00
2018-09-20T03:24:22.429Z,0.00
2018-09-20T03:25:22.193Z,0.00
2018-09-20T03:26:22.181Z,0.00
2018-09-20T03:27:22.164Z,28.00
2018-09-20T03:28:22.123Z,0.00
2018-09-20T03:29:22.111Z,0.00
2018-09-20T03:30:22.178Z,0.00
2018-09-20T03:31:22.073Z,0.00
2018-09-20T03:32:22.038Z,0.00
2018-09-20T03:33:22.012Z,0.00
2018-09-20T03:34:22.000Z,0.00
2018-09-20T03:35:21.977Z,0.00
2018-09-20T03:36:21.939Z,0.00
2018-09-20T03:37:21.914Z,0.00
2018-09-20T03:38:21.900Z,0.00
2018-09-20T03:39:21.867Z,0.00
2018-09-20T03:40:21.854Z,0.00
2018-09-20T03:41:21.836Z,0.00
2018-09-20T03:42:21.893Z,0.00
2018-09-20T03:43:21.773Z,0.00
2018-09-20T03:44:21.759Z,0.00
2018-09-20T03:45:21.726Z,0.00
2018-09-20T03:46:21.697Z,0.00
2018-09-20T03:47:21.683Z,0.00
2018-09-20T03:48:21.659Z,0.00
2018-09-20T03:49:21.637Z,0.00
2018-09-20T03:50:21.604Z,0.00
2018-09-20T03:51:21.594Z,0.00
2018-09-20T03:52:21.563Z,0.00
2018-09-20T03:53:21.531Z,0.00
2018-09-20T03:54:21.521Z,0.00
2018-09-20T03:55:21.490Z,0.00
2018-09-20T03:56:21.475Z,0.00
2018-09-20T03:57:21.435Z,0.00
2018-09-20T03:58:21.421Z,0.00
2018-09-20T03:59:21.405Z,0.00
2018-09-20T04:00:21.383Z,0.00
2018-09-20T04:01:21.351Z,0.00
2018-09-20T14:29:52.668Z,18016.00
2018-09-20T14:30:46.892Z,17452.00
2018-09-20T14:31:46.335Z,17068.00
2018-09-20T14:32:46.329Z,16692.00
2018-09-20T14:33:46.306Z,16312.00
2018-09-20T14:34:46.294Z,15928.00
2018-09-20T14:35:46.809Z,15580.00
2018-09-20T14:36:46.342Z,15268.00
2018-09-20T14:37:46.219Z,14956.00
2018-09-20T14:38:46.722Z,14800.00
2018-09-20T14:39:46.195Z,14684.00
2018-09-20T14:40:46.178Z,14660.00
2018-09-20T14:41:46.149Z,14620.00
2018-09-20T14:42:46.127Z,14592.00
2018-09-20T14:43:46.113Z,14564.00
2018-09-20T14:44:46.093Z,14576.00
2018-09-20T14:45:46.065Z,14580.00
2018-09-20T14:46:46.054Z,14632.00
2018-09-20T14:47:46.034Z,14616.00
2018-09-20T14:48:46.003Z,14520.00
2018-09-20T14:49:46.524Z,14484.00
2018-09-20T14:50:46.117Z,14440.00
2018-09-20T14:51:45.947Z,14320.00
2018-09-20T14:52:46.042Z,14084.00
2018-09-20T14:53:45.915Z,13820.00
2018-09-20T14:54:45.893Z,13680.00
2018-09-20T14:55:45.863Z,13732.00
2018-09-20T14:56:45.858Z,13944.00
2018-09-20T14:57:45.830Z,14324.00
2018-09-20T14:58:45.800Z,14852.00
2018-09-20T14:59:45.791Z,15528.00
2018-09-20T15:00:45.767Z,16148.00
2018-09-20T15:01:45.749Z,16760.00
2018-09-20T15:02:45.722Z,17464.00
2018-09-20T15:03:45.701Z,18144.00
2018-09-20T15:04:45.683Z,18304.00
2018-09-20T15:05:45.651Z,18208.00
2018-09-20T15:06:45.638Z,17952.00
2018-09-20T15:07:45.621Z,17944.00
2018-09-20T15:08:45.593Z,18144.00
2018-09-20T15:09:45.582Z,18208.00
2018-09-20T15:10:45.560Z,18240.00
2018-09-20T15:11:45.531Z,17896.00
2018-09-20T15:12:45.520Z,17416.00
2018-09-20T15:13:45.495Z,16896.00
2018-09-20T15:14:45.475Z,16520.00
2018-09-20T15:15:45.451Z,16232.00
2018-09-20T15:16:45.421Z,15944.00
2018-09-20T15:17:45.401Z,15604.00
2018-09-20T15:18:45.385Z,15316.00
2018-09-20T15:19:45.362Z,14960.00
2018-09-20T15:20:45.349Z,14668.00
2018-09-20T15:21:45.330Z,14304.00
2018-09-20T15:22:45.306Z,14188.00
2018-09-20T15:23:45.290Z,14288.00
2018-09-20T15:24:45.262Z,14620.00
2018-09-20T15:25:45.239Z,15188.00
2018-09-20T15:26:45.226Z,15944.00
2018-09-20T15:27:45.202Z,16708.00
2018-09-20T15:28:45.168Z,17436.00
2018-09-20T15:29:45.163Z,18336.00
2018-09-20T15:30:45.140Z,19232.00
2018-09-20T15:31:45.127Z,20128.00
2018-09-20T15:32:45.093Z,20512.00
2018-09-20T15:33:45.068Z,20352.00
2018-09-20T15:34:45.050Z,19872.00
2018-09-20T15:35:45.035Z,19520.00
2018-09-20T15:36:45.147Z,19264.00
2018-09-20T15:37:45.000Z,19232.00
2018-09-20T15:38:44.968Z,19296.00
2018-09-20T15:39:44.953Z,19200.00
2018-09-20T15:40:44.929Z,19008.00
2018-09-20T15:41:44.905Z,18688.00
2018-09-20T15:42:44.900Z,18240.00
2018-09-20T15:43:44.874Z,17780.00
2018-09-20T15:44:44.842Z,17684.00
2018-09-20T15:45:44.838Z,18176.00
2018-09-20T15:46:44.811Z,18816.00
2018-09-20T15:47:44.794Z,19488.00
2018-09-20T15:48:44.777Z,20032.00
2018-09-20T15:49:44.755Z,20480.00
2018-09-20T15:50:44.741Z,20928.00
2018-09-20T15:51:44.702Z,21536.00
2018-09-20T15:52:45.207Z,22272.00
2018-09-20T15:53:44.670Z,23200.00
2018-09-20T15:54:44.652Z,24448.00
2018-09-20T15:55:44.641Z,26048.00
2018-09-20T15:56:44.604Z,28096.00
2018-09-20T15:57:44.597Z,30528.00
2018-09-20T15:58:44.564Z,33312.00
2018-09-20T15:59:44.550Z,36608.00
2018-09-20T16:00:44.522Z,40128.00
2018-09-20T16:01:44.501Z,43136.00
2018-09-20T16:02:44.490Z,45696.00
2018-09-20T16:03:44.461Z,47776.00
2018-09-20T16:04:44.440Z,49408.00
2018-09-20T16:05:44.509Z,50144.00
2018-09-20T16:06:44.406Z,50240.00
2018-09-20T16:07:44.388Z,49792.00
2018-09-20T16:08:44.377Z,49344.00
2018-09-20T16:09:44.354Z,48896.00
2018-09-20T16:10:44.333Z,48320.00
2018-09-20T16:11:44.318Z,47808.00
2018-09-20T16:12:44.321Z,47456.00
2018-09-20T16:13:44.282Z,47296.00
2018-09-20T16:14:44.267Z,47616.00
2018-09-20T16:15:44.238Z,48064.00
2018-09-20T16:16:44.219Z,48320.00
2018-09-20T16:17:44.216Z,48512.00
2018-09-20T16:18:44.190Z,48672.00
2018-09-20T16:19:44.167Z,49184.00
2018-09-20T16:20:44.156Z,50080.00
2018-09-20T16:21:44.145Z,51104.00
2018-09-20T16:22:44.123Z,52416.00
2018-09-20T16:23:44.127Z,53376.00
2018-09-20T16:24:44.083Z,53984.00
2018-09-20T16:25:44.065Z,54656.00
2018-09-20T16:26:44.042Z,53152.00
2018-09-20T16:27:44.030Z,50688.00
2018-09-20T16:28:44.006Z,46784.00
2018-09-20T16:29:43.985Z,45216.00
2018-09-20T16:30:43.986Z,46016.00
2018-09-20T16:31:44.015Z,41344.00
2018-09-20T16:32:43.942Z,38496.00
2018-09-20T16:33:43.925Z,36032.00
2018-09-20T16:34:43.907Z,33536.00
2018-09-20T16:35:43.892Z,31328.00
2018-09-20T16:36:43.872Z,29632.00
2018-09-20T16:37:43.848Z,28256.00
2018-09-20T16:38:43.844Z,27424.00
2018-09-20T16:39:43.810Z,26848.00
2018-09-20T16:40:43.793Z,26720.00
2018-09-20T16:41:43.775Z,27136.00
2018-09-20T16:42:43.758Z,27232.00
2018-09-20T16:43:43.739Z,27392.00
2018-09-20T16:44:43.731Z,27136.00
2018-09-20T16:45:43.709Z,25824.00
2018-09-20T16:46:43.690Z,24384.00
2018-09-20T16:47:43.658Z,22976.00
2018-09-20T16:48:43.653Z,21888.00
2018-09-20T16:49:43.642Z,21312.00
2018-09-20T16:50:43.610Z,21440.00
2018-09-20T16:51:43.586Z,22560.00
2018-09-20T16:52:43.560Z,24480.00
2018-09-20T16:53:43.550Z,26976.00
2018-09-20T16:54:43.531Z,29504.00
2018-09-20T16:55:43.519Z,31712.00
2018-09-20T16:56:43.504Z,32768.00
2018-09-20T16:57:43.480Z,32800.00
2018-09-20T16:58:43.464Z,32704.00
2018-09-20T16:59:43.445Z,33312.00
2018-09-20T17:00:43.421Z,34496.00
2018-09-20T17:01:43.398Z,35936.00
2018-09-20T17:02:43.386Z,37248.00
2018-09-20T17:03:43.362Z,36800.00
2018-09-20T17:04:43.343Z,36832.00
2018-09-20T17:05:43.329Z,37280.00
2018-09-20T17:06:43.299Z,38048.00
2018-09-20T17:07:43.290Z,38496.00
2018-09-20T17:08:43.273Z,38496.00
2018-09-20T17:09:43.240Z,36896.00
2018-09-20T17:10:43.225Z,34080.00
2018-09-20T17:11:43.207Z,30880.00
2018-09-20T17:12:43.177Z,28256.00
2018-09-20T17:13:43.158Z,26048.00
2018-09-20T17:14:43.180Z,24576.00
2018-09-20T17:15:43.135Z,24032.00
2018-09-20T17:16:43.159Z,24448.00
2018-09-20T17:17:43.089Z,24960.00
2018-09-20T17:18:43.084Z,25408.00
2018-09-20T17:19:43.060Z,25824.00
2018-09-20T17:20:43.033Z,26304.00
2018-09-20T17:21:43.014Z,26080.00
2018-09-20T17:22:42.995Z,25280.00
2018-09-20T17:23:42.977Z,24608.00
2018-09-20T17:24:42.964Z,23840.00
2018-09-20T17:25:42.934Z,23552.00
2018-09-20T17:26:42.919Z,23520.00
2018-09-20T17:27:42.899Z,23296.00
2018-09-20T17:28:42.878Z,23360.00
2018-09-20T17:29:42.893Z,23424.00
2018-09-20T17:30:42.852Z,23776.00
2018-09-20T17:31:42.829Z,24992.00
2018-09-20T17:32:42.799Z,26752.00
2018-09-20T17:33:42.789Z,28704.00
2018-09-20T17:34:42.772Z,30048.00
2018-09-20T17:35:42.755Z,30336.00
2018-09-20T17:36:42.723Z,30048.00
2018-09-20T17:37:42.747Z,28864.00
2018-09-20T17:39:15.895Z,27136.00
2018-09-20T17:39:42.672Z,25024.00
2018-09-20T17:40:42.661Z,23104.00
2018-09-20T17:41:42.646Z,21440.00
2018-09-20T17:42:42.614Z,20640.00
2018-09-20T17:43:42.595Z,20256.00
2018-09-20T17:44:42.584Z,20224.00
2018-09-20T17:45:42.561Z,20832.00
2018-09-20T17:46:42.539Z,21888.00
2018-09-20T17:47:42.532Z,23584.00
2018-09-20T17:48:42.496Z,26272.00
2018-09-20T17:49:42.491Z,27904.00
2018-09-20T17:50:42.456Z,28768.00
2018-09-20T17:51:42.443Z,28608.00
2018-09-20T17:52:42.420Z,28128.00
2018-09-20T17:53:42.416Z,27456.00
2018-09-20T17:54:42.383Z,28064.00
2018-09-20T17:55:42.360Z,29824.00
2018-09-20T17:56:42.357Z,33504.00
2018-09-20T17:57:42.337Z,37952.00
2018-09-20T17:58:42.309Z,39840.00
2018-09-20T17:59:42.292Z,40192.00
2018-09-20T18:00:42.291Z,39872.00
2018-09-20T18:01:42.267Z,39328.00
2018-09-20T18:02:42.231Z,38272.00
2018-09-20T18:03:42.224Z,37344.00
2018-09-20T18:04:42.206Z,36576.00
2018-09-20T18:05:42.176Z,36000.00
2018-09-20T18:06:42.162Z,36192.00
2018-09-20T18:07:42.667Z,37632.00
2018-09-20T18:08:42.129Z,40480.00
2018-09-20T18:09:42.104Z,45888.00
2018-09-20T18:10:42.104Z,40384.00
2018-09-20T18:11:42.085Z,38176.00
2018-09-20T18:12:42.064Z,35360.00
2018-09-20T18:13:42.038Z,32864.00
2018-09-20T18:14:42.030Z,32608.00
2018-09-20T18:15:42.000Z,31776.00
2018-09-20T18:16:41.991Z,28384.00
2018-09-20T18:17:41.981Z,25664.00
2018-09-20T18:18:41.949Z,23264.00
2018-09-20T18:19:41.929Z,22528.00
2018-09-20T18:20:41.926Z,22720.00
2018-09-20T18:21:41.908Z,23264.00
2018-09-20T18:22:41.875Z,23264.00
2018-09-20T18:23:41.861Z,21952.00
2018-09-20T18:24:41.855Z,20160.00
2018-09-20T18:25:41.841Z,18304.00
2018-09-20T18:26:41.822Z,16872.00
2018-09-20T18:27:41.801Z,15908.00
2018-09-20T18:28:41.885Z,15008.00
2018-09-20T18:29:41.753Z,14192.00
2018-09-20T18:30:41.744Z,13416.00
2018-09-20T18:31:41.727Z,12740.00
2018-09-20T18:32:41.704Z,12136.00
2018-09-20T18:33:41.691Z,11668.00
2018-09-20T18:34:41.673Z,11364.00
2018-09-20T18:35:41.655Z,11276.00
2018-09-20T18:36:41.631Z,11304.00
2018-09-20T18:37:41.616Z,11336.00
2018-09-20T18:38:41.605Z,11460.00
2018-09-20T18:39:41.572Z,11608.00
2018-09-20T18:40:41.551Z,11824.00
2018-09-20T18:41:41.548Z,12068.00
2018-09-20T18:42:41.626Z,12284.00
2018-09-20T18:43:41.501Z,12296.00
2018-09-20T18:44:41.482Z,12272.00
2018-09-20T18:45:41.474Z,12168.00
2018-09-20T18:46:41.444Z,12072.00
2018-09-20T18:47:41.474Z,12100.00
2018-09-20T18:48:41.421Z,12544.00
2018-09-20T18:49:41.394Z,13392.00
2018-09-20T18:50:41.380Z,14436.00
2018-09-20T18:51:41.361Z,15404.00
2018-09-20T18:52:41.337Z,15976.00
2018-09-20T18:53:41.429Z,15972.00
2018-09-20T18:54:41.310Z,15476.00
2018-09-20T18:55:41.297Z,15076.00
2018-09-20T18:56:41.273Z,15140.00
2018-09-20T18:57:41.240Z,15632.00
2018-09-20T18:58:41.224Z,16068.00
2018-09-20T18:59:41.218Z,16140.00
2018-09-20T19:00:41.186Z,16060.00
2018-09-20T19:01:41.168Z,15832.00
2018-09-20T19:02:41.153Z,15360.00
2018-09-20T19:03:41.142Z,14748.00
2018-09-20T19:04:41.126Z,14004.00
2018-09-20T19:05:41.093Z,13172.00
2018-09-20T19:06:41.088Z,12516.00
2018-09-20T19:07:41.058Z,12052.00
2018-09-20T19:08:41.043Z,11904.00
2018-09-20T19:09:41.035Z,12100.00
2018-09-20T19:10:41.004Z,12528.00
2018-09-20T19:11:40.994Z,12840.00
2018-09-20T19:12:40.972Z,12976.00
2018-09-20T19:13:40.946Z,13136.00
2018-09-20T19:14:40.920Z,13320.00
2018-09-20T19:15:40.909Z,13552.00
2018-09-20T19:16:40.899Z,13800.00
2018-09-20T19:17:40.881Z,14148.00
2018-09-20T19:18:40.861Z,14568.00
2018-09-20T19:19:40.838Z,15152.00
2018-09-20T19:20:40.822Z,15668.00
2018-09-20T19:21:40.797Z,15868.00
2018-09-20T19:22:40.788Z,15780.00
2018-09-20T19:23:40.764Z,15572.00
2018-09-20T19:24:40.735Z,15304.00
2018-09-20T19:25:40.724Z,14964.00
2018-09-20T19:26:40.707Z,14440.00
2018-09-20T19:27:40.751Z,13552.00
2018-09-20T19:28:40.660Z,12480.00
2018-09-20T19:29:40.641Z,11364.00
2018-09-20T19:30:40.614Z,10428.00
2018-09-20T19:31:40.612Z,9832.00
2018-09-20T19:32:40.635Z,9444.00
2018-09-20T19:33:40.606Z,9204.00
2018-09-20T19:34:40.536Z,9144.00
2018-09-20T19:35:40.570Z,9256.00
2018-09-20T19:36:40.562Z,9312.00
2018-09-20T19:37:40.530Z,9076.00
2018-09-20T19:38:40.557Z,8584.00
2018-09-20T19:39:40.500Z,7964.00
2018-09-20T19:41:13.634Z,7420.00
2018-09-20T19:41:40.405Z,7052.00
2018-09-20T19:42:40.392Z,6776.00
2018-09-20T19:43:40.372Z,6616.00
2018-09-20T19:44:40.341Z,6544.00
2018-09-20T19:45:40.330Z,6536.00
2018-09-20T19:46:40.309Z,6584.00
2018-09-20T19:47:40.275Z,6724.00
2018-09-20T19:48:40.269Z,7056.00
2018-09-20T19:49:40.247Z,7528.00
2018-09-20T19:50:40.235Z,8028.00
2018-09-20T19:51:40.241Z,8512.00
2018-09-20T19:52:40.184Z,8820.00
2018-09-20T19:53:40.153Z,8960.00
2018-09-20T19:54:40.662Z,9024.00
2018-09-20T19:55:40.128Z,9060.00
2018-09-20T19:56:40.115Z,9208.00
2018-09-20T19:57:40.079Z,9552.00
2018-09-20T19:58:40.065Z,9984.00
2018-09-20T19:59:40.055Z,10620.00
2018-09-20T20:00:40.162Z,11092.00
2018-09-20T20:01:40.009Z,10988.00
2018-09-20T20:02:39.981Z,10260.00
2018-09-20T20:03:39.957Z,9472.00
2018-09-20T20:04:39.945Z,9168.00
2018-09-20T20:05:39.932Z,9216.00
2018-09-20T20:06:39.906Z,9116.00
2018-09-20T20:07:39.885Z,8648.00
2018-09-20T20:08:39.869Z,8204.00
2018-09-20T20:09:39.846Z,8144.00
2018-09-20T20:10:39.832Z,8500.00
2018-09-20T20:11:39.808Z,8840.00
2018-09-20T20:12:39.772Z,8756.00
2018-09-20T20:13:39.761Z,8340.00
2018-09-20T20:14:39.747Z,7924.00
2018-09-20T20:15:39.727Z,7688.00
2018-09-20T20:16:39.713Z,7436.00
2018-09-20T20:17:39.688Z,7020.00
2018-09-20T20:18:39.666Z,6572.00
2018-09-20T20:19:39.665Z,6140.00
2018-09-20T20:20:39.625Z,5640.00
2018-09-20T20:21:39.602Z,5080.00
2018-09-20T20:22:39.579Z,4552.00
2018-09-20T20:23:39.559Z,4200.00
2018-09-20T20:24:39.547Z,4068.00
2018-09-20T20:25:39.526Z,4060.00
2018-09-20T20:26:39.510Z,3972.00
2018-09-20T20:27:39.494Z,3864.00
2018-09-20T20:28:39.553Z,3828.00
2018-09-20T20:29:39.451Z,3872.00
2018-09-20T20:30:39.416Z,3852.00
2018-09-20T20:31:39.412Z,3644.00
2018-09-20T20:32:39.423Z,3360.00
2018-09-20T20:33:39.367Z,3100.00
2018-09-20T20:34:39.345Z,2928.00
2018-09-20T20:35:39.311Z,2772.00
2018-09-20T20:36:39.305Z,2620.00
2018-09-20T20:37:39.273Z,2452.00
2018-09-20T20:38:39.259Z,2264.00
2018-09-20T20:39:39.270Z,2072.00
2018-09-20T20:40:39.226Z,1872.00
2018-09-20T20:41:39.213Z,1664.00
2018-09-20T20:42:39.185Z,1480.00
2018-09-20T20:43:39.157Z,1344.00
2018-09-20T20:44:39.142Z,1244.00
2018-09-20T20:45:39.114Z,1184.00
2018-09-20T20:46:39.107Z,1176.00
2018-09-20T20:47:39.075Z,1200.00
2018-09-20T20:48:39.053Z,1224.00
2018-09-20T20:49:39.041Z,1236.00
2018-09-20T20:50:39.022Z,1196.00
2018-09-20T20:51:38.996Z,1124.00
2018-09-20T20:52:38.969Z,1032.00
2018-09-20T20:53:38.956Z,932.00
2018-09-20T20:54:38.939Z,824.00
2018-09-20T20:55:38.903Z,716.00
2018-09-20T20:56:38.898Z,612.00
2018-09-20T20:57:38.875Z,524.00
2018-09-20T20:58:38.925Z,452.00
2018-09-20T20:59:38.836Z,392.00
2018-09-20T21:00:38.816Z,340.00
2018-09-20T21:01:38.794Z,300.00
2018-09-20T21:02:38.770Z,260.00
2018-09-20T21:03:38.751Z,228.00
2018-09-20T21:04:38.722Z,200.00
2018-09-20T21:05:38.708Z,176.00
2018-09-20T21:06:38.685Z,156.00
2018-09-20T21:07:38.673Z,132.00
2018-09-20T21:08:38.645Z,112.00
2018-09-20T21:09:38.615Z,92.00
2018-09-20T21:10:38.594Z,72.00
2018-09-20T21:11:38.583Z,52.00
2018-09-20T21:12:38.562Z,40.00
2018-09-20T21:13:38.533Z,32.00
2018-09-20T21:14:38.589Z,24.00
2018-09-20T21:15:38.492Z,20.00
2018-09-20T21:17:11.702Z,16.00
2018-09-20T21:17:38.460Z,12.00
2018-09-20T21:18:38.428Z,12.00
2018-09-20T21:19:38.417Z,4.00
2018-09-20T21:20:38.396Z,4.00
2018-09-20T21:21:38.364Z,4.00
2018-09-20T21:22:38.352Z,4.00
2018-09-20T21:23:38.321Z,4.00
2018-09-20T21:24:38.303Z,0.00
2018-09-20T21:25:38.288Z,0.00
2018-09-20T21:26:38.260Z,0.00
2018-09-20T21:27:38.281Z,0.00
2018-09-20T21:28:38.231Z,0.00
2018-09-20T21:29:38.191Z,0.00
2018-09-20T21:30:38.170Z,0.00
2018-09-20T21:31:38.151Z,0.00
2018-09-20T21:32:38.142Z,0.00
2018-09-20T21:33:38.119Z,0.00
2018-09-20T21:34:38.089Z,0.00
2018-09-20T21:35:38.077Z,0.00
2018-09-20T21:36:38.056Z,0.00
2018-09-20T21:37:38.034Z,0.00
2018-09-20T21:38:38.005Z,0.00
2018-09-20T21:39:37.980Z,0.00
2018-09-20T21:40:37.960Z,0.00
2018-09-20T21:41:37.954Z,0.00
2018-09-20T21:42:37.921Z,0.00
2018-09-20T21:43:37.917Z,0.00
2018-09-20T21:44:37.887Z,0.00
2018-09-20T21:45:37.857Z,0.00
2018-09-20T21:46:37.850Z,0.00
2018-09-20T21:47:37.816Z,0.00
2018-09-20T21:48:37.797Z,0.00
2018-09-20T21:49:37.779Z,0.00
2018-09-20T21:50:37.762Z,0.00
2018-09-20T21:51:37.730Z,0.00
2018-09-20T21:52:37.713Z,0.00
2018-09-20T21:53:37.683Z,0.00
2018-09-20T21:54:37.672Z,0.00
2018-09-20T21:55:37.642Z,0.00
2018-09-20T21:56:37.620Z,0.00
2018-09-20T21:57:37.615Z,0.00
2018-09-20T21:58:37.595Z,0.00
2018-09-20T21:59:37.556Z,0.00
2018-09-20T22:00:37.549Z,0.00
2018-09-20T22:01:37.517Z,0.00
2018-09-20T22:02:37.502Z,0.00
2018-09-20T22:03:37.484Z,0.00
2018-09-20T22:04:37.464Z,0.00
2018-09-20T22:05:37.433Z,0.00
2018-09-20T22:06:37.476Z,0.00
2018-09-20T22:07:37.391Z,0.00
2018-09-20T22:08:37.364Z,0.00
2018-09-20T22:09:37.345Z,0.00
2018-09-20T22:10:37.341Z,0.00
2018-09-20T22:11:37.302Z,0.00
2018-09-20T22:12:37.288Z,0.00
2018-09-20T22:13:37.258Z,0.00
2018-09-20T22:14:37.239Z,0.00
2018-09-20T22:15:37.227Z,0.00
2018-09-20T22:16:37.203Z,0.00
2018-09-20T22:17:37.180Z,0.00
2018-09-20T22:18:37.166Z,0.00
2018-09-20T22:19:37.143Z,0.00
2018-09-20T22:20:37.107Z,0.00
2018-09-20T22:21:37.102Z,0.00
2018-09-20T22:22:37.089Z,0.00
2018-09-20T22:23:37.062Z,0.00
2018-09-20T22:24:37.024Z,0.00
2018-09-20T22:25:37.024Z,0.00
2018-09-20T22:26:36.989Z,0.00
2018-09-20T22:27:36.992Z,0.00
2018-09-20T22:28:36.950Z,0.00
2018-09-20T22:29:36.920Z,0.00
2018-09-20T22:30:36.903Z,0.00
2018-09-20T22:31:36.888Z,0.00
2018-09-20T22:32:36.871Z,0.00
2018-09-20T22:33:36.831Z,0.00
2018-09-20T22:34:36.826Z,0.00
2018-09-20T22:35:36.791Z,0.00
2018-09-20T22:36:36.763Z,0.00
2018-09-20T22:37:36.753Z,0.00
2018-09-20T22:38:36.726Z,0.00
2018-09-20T22:39:36.728Z,0.00
2018-09-20T22:40:36.695Z,0.00
2018-09-20T22:41:36.660Z,0.00
2018-09-20T22:42:36.654Z,0.00
2018-09-20T22:43:36.637Z,0.00
2018-09-20T22:44:36.612Z,0.00
2018-09-20T22:45:36.581Z,0.00
2018-09-20T22:46:36.566Z,0.00
2018-09-20T22:47:36.531Z,0.00
2018-09-20T22:48:36.513Z,0.00
2018-09-20T22:49:36.507Z,0.00
2018-09-20T22:50:36.477Z,0.00
2018-09-20T22:51:36.445Z,0.00
2018-09-20T22:52:36.430Z,0.00
2018-09-20T22:53:36.405Z,0.00
2018-09-20T22:54:36.398Z,0.00
2018-09-20T22:55:36.369Z,0.00